Hoskins, Nebraska
Current Conditions -  °F | °C
As of 4:56 AM on Friday 24 Oct 2014 (Local Time) from KOFK Reporting Station
Clear Clear  
Wind Chill: 57°   Ceiling: Unl
Heat Index: 57°   Visibility: 7mi
Dew Point: 54°   Wind: 8mph
Humidity: 89%   Direction: 230°SW
Pressure: 29.9"   Gusts: NA
Location:  42.11°N, 97.31°W
Report Text: KOFK 240956Z AUTO 23007KT 7SM CLR 14/12 A2990 RMK AO2 SLP121 T01390122
Loading
Personal Weather Stations






























Interactive Weather Map
Tropical Storm Tracking
New forecast layout! Learn more

10-Day Weather Forecast

Advertisements
Track Severe Weather on mobile